createdAt,value
2019-05-28T00:00:24.489Z,3.30
2019-05-28T00:01:24.471Z,4.00
2019-05-28T00:02:24.448Z,2.60
2019-05-28T00:03:24.432Z,3.30
2019-05-28T00:04:24.407Z,2.60
2019-05-28T00:05:24.384Z,2.30
2019-05-28T00:06:24.365Z,3.90
2019-05-28T00:07:25.111Z,3.20
2019-05-28T00:08:24.323Z,2.90
2019-05-28T00:09:24.318Z,2.60
2019-05-28T00:10:24.280Z,3.20
2019-05-28T00:11:24.261Z,3.10
2019-05-28T00:12:24.239Z,2.70
2019-05-28T00:13:24.220Z,2.90
2019-05-28T00:14:24.197Z,3.10
2019-05-28T00:15:24.175Z,3.20
2019-05-28T00:16:24.155Z,3.00
2019-05-28T00:17:24.133Z,3.20
2019-05-28T00:18:24.125Z,2.40
2019-05-28T00:19:24.090Z,3.00
2019-05-28T00:20:24.072Z,3.00
2019-05-28T00:21:24.049Z,3.20
2019-05-28T00:22:24.028Z,3.70
2019-05-28T00:23:24.008Z,3.00
2019-05-28T00:24:23.987Z,3.20
2019-05-28T00:25:25.855Z,3.10
2019-05-28T00:26:23.944Z,3.30
2019-05-28T00:27:23.923Z,3.30
2019-05-28T00:28:24.653Z,2.70
2019-05-28T00:29:23.881Z,3.10
2019-05-28T00:30:23.863Z,3.20
2019-05-28T00:31:23.839Z,2.40
2019-05-28T00:32:23.820Z,2.80
2019-05-28T00:33:23.796Z,2.50
2019-05-28T00:34:23.780Z,3.40
2019-05-28T00:35:23.761Z,2.50
2019-05-28T00:36:23.733Z,2.60
2019-05-28T00:37:23.813Z,3.50
2019-05-28T00:38:23.691Z,2.70
2019-05-28T00:39:24.421Z,4.60
2019-05-28T00:40:23.651Z,2.40
2019-05-28T00:41:23.628Z,3.00
2019-05-28T00:42:23.606Z,2.50
2019-05-28T00:43:23.585Z,2.40
2019-05-28T00:44:23.564Z,3.10
2019-05-28T00:45:23.542Z,2.20
2019-05-28T00:46:23.521Z,2.70
2019-05-28T00:47:23.504Z,2.90
2019-05-28T00:48:23.534Z,2.70
2019-05-28T00:49:23.456Z,2.20
2019-05-28T00:50:23.436Z,2.40
2019-05-28T00:51:23.418Z,2.30
2019-05-28T00:52:23.395Z,2.80
2019-05-28T00:53:23.372Z,3.40
2019-05-28T00:54:23.351Z,3.30
2019-05-28T00:55:23.331Z,4.60
2019-05-28T00:56:23.310Z,3.40
2019-05-28T00:57:23.287Z,4.20
2019-05-28T00:58:23.265Z,2.80
2019-05-28T00:59:23.246Z,3.10
2019-05-28T01:00:36.692Z,2.40
2019-05-28T01:01:23.204Z,3.10
2019-05-28T01:02:23.183Z,2.40
2019-05-28T01:03:23.162Z,4.70
2019-05-28T01:04:23.141Z,2.80
2019-05-28T01:05:23.119Z,2.70
2019-05-28T01:06:23.098Z,2.40
2019-05-28T01:07:23.077Z,2.30
2019-05-28T01:08:23.056Z,4.30
2019-05-28T01:09:23.034Z,3.00
2019-05-28T01:10:23.013Z,2.30
2019-05-28T01:11:22.993Z,3.00
2019-05-28T01:12:22.973Z,2.40
2019-05-28T01:13:22.950Z,2.40
2019-05-28T01:14:22.930Z,2.90
2019-05-28T01:15:22.908Z,3.00
2019-05-28T01:16:22.887Z,3.60
2019-05-28T01:17:22.865Z,2.30
2019-05-28T01:18:22.844Z,2.40
2019-05-28T01:19:22.825Z,3.80
2019-05-28T01:20:22.805Z,3.00
2019-05-28T01:21:22.782Z,2.50
2019-05-28T01:22:22.760Z,3.00
2019-05-28T01:23:22.741Z,2.50
2019-05-28T01:24:22.717Z,2.50
2019-05-28T01:25:22.697Z,2.30
2019-05-28T01:26:23.428Z,3.20
2019-05-28T01:27:22.653Z,3.10
2019-05-28T01:28:22.633Z,3.30
2019-05-28T01:29:22.610Z,3.30
2019-05-28T01:30:22.589Z,2.00
2019-05-28T01:31:22.571Z,2.40
2019-05-28T01:32:22.547Z,2.30
2019-05-28T01:33:22.526Z,2.60
2019-05-28T01:34:22.504Z,2.60
2019-05-28T01:35:22.483Z,2.60
2019-05-28T01:36:22.467Z,2.20
2019-05-28T01:37:22.439Z,2.50
2019-05-28T01:38:22.418Z,2.00
2019-05-28T01:39:22.396Z,2.30
2019-05-28T01:40:23.287Z,2.40
2019-05-28T01:41:22.353Z,2.30
2019-05-28T01:42:22.332Z,2.50
2019-05-28T01:43:22.310Z,2.00
2019-05-28T01:44:22.289Z,2.50
2019-05-28T01:45:22.266Z,3.00
2019-05-28T01:46:22.246Z,2.00
2019-05-28T01:47:22.224Z,2.20
2019-05-28T01:48:22.203Z,2.60
2019-05-28T01:49:22.184Z,3.00
2019-05-28T01:50:22.158Z,2.30
2019-05-28T01:51:22.136Z,3.70
2019-05-28T01:52:22.115Z,2.20
2019-05-28T01:53:22.094Z,2.00
2019-05-28T01:54:22.072Z,1.90
2019-05-28T01:55:22.050Z,2.10
2019-05-28T01:56:22.031Z,2.40
2019-05-28T01:57:22.007Z,2.10
2019-05-28T01:58:21.985Z,2.30
2019-05-28T01:59:24.216Z,1.90
2019-05-28T02:00:21.942Z,2.60
2019-05-28T02:01:21.923Z,1.90
2019-05-28T02:02:21.900Z,2.90
2019-05-28T02:03:21.876Z,6.10
2019-05-28T02:04:21.862Z,2.50
2019-05-28T02:05:22.587Z,2.00
2019-05-28T02:06:21.812Z,2.40
2019-05-28T02:07:21.790Z,3.50
2019-05-28T02:08:21.768Z,2.70
2019-05-28T02:09:21.744Z,1.90
2019-05-28T02:10:21.732Z,2.50
2019-05-28T02:11:21.703Z,2.40
2019-05-28T02:12:21.682Z,4.10
2019-05-28T02:13:21.658Z,2.90
2019-05-28T02:14:21.640Z,2.60
2019-05-28T02:15:21.616Z,1.80
2019-05-28T02:16:21.594Z,2.30
2019-05-28T02:17:21.571Z,1.80
2019-05-28T02:18:21.552Z,3.00
2019-05-28T02:19:21.529Z,2.00
2019-05-28T02:20:21.508Z,2.20
2019-05-28T02:21:21.484Z,3.00
2019-05-28T02:22:21.462Z,2.10
2019-05-28T02:23:21.441Z,4.00
2019-05-28T02:24:21.421Z,2.10
2019-05-28T02:25:21.398Z,2.50
2019-05-28T02:26:21.375Z,3.00
2019-05-28T02:27:21.355Z,3.90
2019-05-28T02:28:21.333Z,3.10
2019-05-28T02:29:21.311Z,2.40
2019-05-28T02:30:21.288Z,2.50
2019-05-28T02:31:27.624Z,2.20
2019-05-28T02:32:21.245Z,2.40
2019-05-28T02:33:21.222Z,2.20
2019-05-28T02:34:21.200Z,2.10
2019-05-28T02:35:21.179Z,2.90
2019-05-28T02:36:21.157Z,2.10
2019-05-28T02:37:21.191Z,3.00
2019-05-28T02:38:21.112Z,2.90
2019-05-28T02:39:21.092Z,2.10
2019-05-28T02:40:21.070Z,2.00
2019-05-28T02:41:21.050Z,1.80
2019-05-28T02:42:21.028Z,2.60
2019-05-28T02:43:21.040Z,1.90
2019-05-28T02:44:20.983Z,2.30
2019-05-28T02:45:20.960Z,2.30
2019-05-28T02:46:20.939Z,2.20
2019-05-28T02:47:20.918Z,3.40
2019-05-28T02:48:20.896Z,2.50
2019-05-28T02:49:20.915Z,5.40
2019-05-28T02:50:20.851Z,2.20
2019-05-28T02:51:20.838Z,3.50
2019-05-28T02:52:20.814Z,2.50
2019-05-28T02:53:20.787Z,2.40
2019-05-28T02:54:20.774Z,2.00
2019-05-28T02:55:20.746Z,1.90
2019-05-28T02:56:20.724Z,2.50
2019-05-28T02:57:20.703Z,1.80
2019-05-28T02:58:20.680Z,2.10
2019-05-28T02:59:20.657Z,2.50
2019-05-28T03:00:20.636Z,1.90
2019-05-28T03:01:20.614Z,2.10
2019-05-28T03:02:20.592Z,1.80
2019-05-28T03:03:20.572Z,2.10
2019-05-28T03:04:20.549Z,2.60
2019-05-28T03:05:20.527Z,2.10
2019-05-28T03:06:20.505Z,2.00
2019-05-28T03:07:20.483Z,2.00
2019-05-28T03:08:20.462Z,1.80
2019-05-28T03:09:20.440Z,2.90
2019-05-28T03:10:20.417Z,2.10
2019-05-28T03:11:20.398Z,2.50
2019-05-28T03:12:20.375Z,2.50
2019-05-28T03:13:20.354Z,2.20
2019-05-28T03:14:20.331Z,1.90
2019-05-28T03:15:20.309Z,2.00
2019-05-28T03:16:20.288Z,2.40
2019-05-28T03:17:20.266Z,2.60
2019-05-28T03:18:20.244Z,3.00
2019-05-28T03:19:20.228Z,2.30
2019-05-28T03:20:20.201Z,2.10
2019-05-28T03:21:20.180Z,2.00
2019-05-28T03:22:20.157Z,2.40
2019-05-28T03:23:20.163Z,2.10
2019-05-28T03:24:20.117Z,2.10
2019-05-28T03:25:20.146Z,1.90
2019-05-28T03:26:23.443Z,2.60
2019-05-28T03:27:20.047Z,1.90
2019-05-28T03:28:20.027Z,1.90
2019-05-28T03:29:20.004Z,2.00
2019-05-28T03:30:19.983Z,2.60
2019-05-28T03:31:19.962Z,2.20
2019-05-28T03:32:19.940Z,2.20
2019-05-28T03:33:19.918Z,2.40
2019-05-28T03:34:19.895Z,2.10
2019-05-28T03:35:19.876Z,2.30
2019-05-28T03:36:19.860Z,2.60
2019-05-28T03:37:19.830Z,2.80
2019-05-28T03:38:19.808Z,2.80
2019-05-28T03:39:19.786Z,2.40
2019-05-28T03:40:19.765Z,2.40
2019-05-28T03:41:19.742Z,2.10
2019-05-28T03:42:19.726Z,3.30
2019-05-28T03:43:19.699Z,2.10
2019-05-28T03:44:19.677Z,2.40
2019-05-28T03:45:19.654Z,2.30
2019-05-28T03:46:19.638Z,2.30
2019-05-28T03:47:19.611Z,3.20
2019-05-28T03:48:19.589Z,2.40
2019-05-28T03:49:19.567Z,3.00
2019-05-28T03:50:19.545Z,3.10
2019-05-28T03:51:19.523Z,2.20
2019-05-28T03:52:19.502Z,2.20
2019-05-28T03:53:19.480Z,2.60
2019-05-28T03:54:19.463Z,3.30
2019-05-28T03:55:19.436Z,3.60
2019-05-28T03:56:19.414Z,3.40
2019-05-28T03:57:19.392Z,2.90
2019-05-28T03:58:19.371Z,2.60
2019-05-28T03:59:19.346Z,4.50
2019-05-28T04:00:19.329Z,3.00
2019-05-28T04:01:19.304Z,2.60
2019-05-28T04:02:23.541Z,3.00
2019-05-28T04:03:19.259Z,2.60
2019-05-28T04:04:19.240Z,3.10
2019-05-28T04:05:19.215Z,2.40
2019-05-28T04:06:19.195Z,2.80
2019-05-28T04:07:19.172Z,2.20
2019-05-28T04:08:19.151Z,2.50
2019-05-28T04:09:19.127Z,6.30
2019-05-28T04:10:19.106Z,4.50
2019-05-28T04:11:19.837Z,3.20
2019-05-28T04:12:19.067Z,3.30
2019-05-28T04:13:19.040Z,2.70
2019-05-28T04:14:19.028Z,2.80
2019-05-28T04:15:18.997Z,3.50
2019-05-28T04:16:18.976Z,2.60
2019-05-28T04:17:18.951Z,2.50
2019-05-28T04:18:18.930Z,4.00
2019-05-28T04:19:18.907Z,2.90
2019-05-28T04:20:18.939Z,3.30
2019-05-28T04:21:18.864Z,3.40
2019-05-28T04:22:18.843Z,2.60
2019-05-28T04:23:18.820Z,2.90
2019-05-28T04:24:18.800Z,2.90
2019-05-28T04:25:18.777Z,3.90
2019-05-28T04:26:18.755Z,2.80
2019-05-28T04:27:18.733Z,3.80
2019-05-28T04:28:18.711Z,3.90
2019-05-28T04:29:18.689Z,3.90
2019-05-28T04:30:18.674Z,3.00
2019-05-28T04:31:18.646Z,3.80
2019-05-28T04:32:18.623Z,3.30
2019-05-28T04:33:18.601Z,3.00
2019-05-28T04:34:18.578Z,3.10
2019-05-28T04:35:18.556Z,3.80
2019-05-28T04:36:18.535Z,3.30
2019-05-28T04:37:18.516Z,3.60
2019-05-28T04:38:19.250Z,3.30
2019-05-28T04:39:18.473Z,5.10
2019-05-28T04:40:18.446Z,3.40
2019-05-28T04:41:18.424Z,3.50
2019-05-28T04:42:18.402Z,4.30
2019-05-28T04:43:18.381Z,3.90
2019-05-28T04:44:18.358Z,3.80
2019-05-28T04:45:18.335Z,4.20
2019-05-28T04:46:18.314Z,4.40
2019-05-28T04:47:18.291Z,4.40
2019-05-28T04:48:18.273Z,6.90
2019-05-28T04:49:18.248Z,3.70
2019-05-28T04:50:18.224Z,4.90
2019-05-28T04:51:18.203Z,4.50
2019-05-28T04:52:18.181Z,4.00
2019-05-28T04:53:18.157Z,5.30
2019-05-28T04:54:18.136Z,5.50
2019-05-28T04:55:18.116Z,4.20
2019-05-28T04:56:18.096Z,4.60
2019-05-28T04:57:18.075Z,4.00
2019-05-28T04:58:18.047Z,3.90
2019-05-28T04:59:18.026Z,3.90
2019-05-28T05:00:18.006Z,4.60
2019-05-28T05:01:17.986Z,5.70
2019-05-28T05:02:17.958Z,5.60
2019-05-28T05:03:17.935Z,4.20
2019-05-28T05:04:17.914Z,4.50
2019-05-28T05:05:17.894Z,3.90
2019-05-28T05:06:17.869Z,4.10
2019-05-28T05:07:17.847Z,4.50
2019-05-28T05:08:17.825Z,3.90
2019-05-28T05:09:17.802Z,4.90
2019-05-28T05:10:19.251Z,5.10
2019-05-28T05:11:17.758Z,3.70
2019-05-28T05:12:17.736Z,4.20
2019-05-28T05:13:17.714Z,4.90
2019-05-28T05:14:17.692Z,3.80
2019-05-28T05:15:17.670Z,4.50
2019-05-28T05:16:17.648Z,5.80
2019-05-28T05:17:17.627Z,4.90
2019-05-28T05:18:17.738Z,3.50
2019-05-28T05:19:17.582Z,3.90
2019-05-28T05:20:17.559Z,4.30
2019-05-28T05:21:17.536Z,4.00
2019-05-28T05:22:17.518Z,4.10
2019-05-28T05:23:17.493Z,5.00
2019-05-28T05:24:17.474Z,4.20
2019-05-28T05:25:17.464Z,4.20
2019-05-28T05:26:17.427Z,5.00
2019-05-28T05:27:17.407Z,4.70
2019-05-28T05:28:17.383Z,4.20
2019-05-28T05:29:17.361Z,3.70
2019-05-28T05:30:17.341Z,4.80
2019-05-28T05:31:17.316Z,5.10
2019-05-28T05:32:17.295Z,8.40
2019-05-28T05:33:20.428Z,6.10
2019-05-28T05:34:17.250Z,4.10
2019-05-28T05:35:17.228Z,3.60
2019-05-28T05:36:17.207Z,6.40
2019-05-28T05:37:17.183Z,4.90
2019-05-28T05:38:17.161Z,7.50
2019-05-28T05:39:17.188Z,7.60
2019-05-28T05:40:20.120Z,4.80
2019-05-28T05:41:17.094Z,4.90
2019-05-28T05:42:17.072Z,5.00
2019-05-28T05:43:17.052Z,6.20
2019-05-28T05:44:17.031Z,5.40
2019-05-28T05:45:17.008Z,6.00
2019-05-28T05:46:16.985Z,4.10
2019-05-28T05:47:16.963Z,4.60
2019-05-28T05:48:16.941Z,5.60
2019-05-28T05:49:16.919Z,4.70
2019-05-28T05:50:16.897Z,6.30
2019-05-28T05:51:16.876Z,4.50
2019-05-28T05:52:16.854Z,5.80
2019-05-28T05:53:16.837Z,5.70
2019-05-28T05:54:16.835Z,7.20
2019-05-28T05:55:16.797Z,5.20
2019-05-28T05:56:16.768Z,4.60
2019-05-28T05:57:16.747Z,4.50
2019-05-28T05:58:16.723Z,5.00
2019-05-28T05:59:16.703Z,6.20
2019-05-28T06:00:16.678Z,4.80
2019-05-28T06:01:16.693Z,7.10
2019-05-28T06:02:16.633Z,5.30
2019-05-28T06:03:16.612Z,7.90
2019-05-28T06:04:16.594Z,5.20
2019-05-28T06:05:16.568Z,6.50
2019-05-28T06:06:16.546Z,4.40
2019-05-28T06:07:16.527Z,6.50
2019-05-28T06:08:16.518Z,6.10
2019-05-28T06:09:16.481Z,5.70
2019-05-28T06:10:16.470Z,5.20
2019-05-28T06:11:16.439Z,5.50
2019-05-28T06:12:21.669Z,5.90
2019-05-28T06:13:16.391Z,7.30
2019-05-28T06:14:16.369Z,4.50
2019-05-28T06:15:16.353Z,5.30
2019-05-28T06:16:16.325Z,5.90
2019-05-28T06:17:16.318Z,5.90
2019-05-28T06:18:16.282Z,6.80
2019-05-28T06:19:16.295Z,5.60
2019-05-28T06:20:16.238Z,7.30
2019-05-28T06:21:18.909Z,6.10
2019-05-28T06:22:16.192Z,4.60
2019-05-28T06:23:16.171Z,6.20
2019-05-28T06:24:16.150Z,5.90
2019-05-28T06:25:16.139Z,5.40
2019-05-28T06:26:16.109Z,6.10
2019-05-28T06:27:19.257Z,4.80
2019-05-28T06:28:16.061Z,6.10
2019-05-28T06:29:16.038Z,5.60
2019-05-28T06:30:16.016Z,4.70
2019-05-28T06:31:15.995Z,5.10
2019-05-28T06:32:15.972Z,5.70
2019-05-28T06:33:15.951Z,5.00
2019-05-28T06:34:15.930Z,6.60
2019-05-28T06:35:15.907Z,5.00
2019-05-28T06:36:15.886Z,6.10
2019-05-28T06:37:15.866Z,7.20
2019-05-28T06:38:15.854Z,5.60
2019-05-28T06:39:18.071Z,7.10
2019-05-28T06:40:15.797Z,6.10
2019-05-28T06:41:15.774Z,6.70
2019-05-28T06:42:15.751Z,5.20
2019-05-28T06:43:15.736Z,5.50
2019-05-28T06:44:15.711Z,6.80
2019-05-28T06:45:15.737Z,5.20
2019-05-28T06:46:15.666Z,4.30
2019-05-28T06:47:15.644Z,4.60
2019-05-28T06:48:15.623Z,5.30
2019-05-28T06:49:15.601Z,7.10
2019-05-28T06:50:15.580Z,8.10
2019-05-28T06:51:15.559Z,5.60
2019-05-28T06:52:15.538Z,4.80
2019-05-28T06:53:15.514Z,7.70
2019-05-28T06:54:15.493Z,10.30
2019-05-28T06:55:15.477Z,5.60
2019-05-28T06:56:15.451Z,5.90
2019-05-28T06:57:22.887Z,7.70
2019-05-28T06:58:15.408Z,6.80
2019-05-28T06:59:15.417Z,7.30
2019-05-28T07:00:15.392Z,10.10
2019-05-28T07:01:15.343Z,7.10
2019-05-28T07:02:15.321Z,5.20
2019-05-28T07:03:15.304Z,6.30
2019-05-28T07:04:29.773Z,8.40
2019-05-28T07:05:15.257Z,7.00
2019-05-28T07:06:15.236Z,9.20
2019-05-28T07:07:15.215Z,7.40
2019-05-28T07:08:15.194Z,7.30
2019-05-28T07:09:15.172Z,5.80
2019-05-28T07:10:15.153Z,6.30
2019-05-28T07:11:15.131Z,6.90
2019-05-28T07:12:17.958Z,7.40
2019-05-28T07:13:15.088Z,5.20
2019-05-28T07:14:15.067Z,6.60
2019-05-28T07:15:15.047Z,6.10
2019-05-28T07:16:15.025Z,5.80
2019-05-28T07:17:15.003Z,5.70
2019-05-28T07:18:14.983Z,5.60
2019-05-28T07:19:24.623Z,5.30
2019-05-28T07:20:14.956Z,7.10
2019-05-28T07:21:14.919Z,6.80
2019-05-28T07:22:14.898Z,5.60
2019-05-28T07:23:14.877Z,6.20
2019-05-28T07:24:14.879Z,6.30
2019-05-28T07:25:14.837Z,5.70
2019-05-28T07:26:14.813Z,5.70
2019-05-28T07:27:15.544Z,5.40
2019-05-28T07:28:14.772Z,6.20
2019-05-28T07:29:14.750Z,5.70
2019-05-28T07:30:14.730Z,7.70
2019-05-28T07:31:14.708Z,5.90
2019-05-28T07:32:14.689Z,10.30
2019-05-28T07:33:14.666Z,4.50
2019-05-28T07:34:29.757Z,5.70
2019-05-28T07:35:14.624Z,5.70
2019-05-28T07:36:14.606Z,5.00
2019-05-28T07:37:14.583Z,7.20
2019-05-28T07:38:14.562Z,5.80
2019-05-28T07:39:14.542Z,6.70
2019-05-28T07:40:30.557Z,5.40
2019-05-28T07:41:14.506Z,5.10
2019-05-28T07:42:14.481Z,6.90
2019-05-28T07:43:14.459Z,6.40
2019-05-28T07:44:14.437Z,7.40
2019-05-28T07:45:14.421Z,5.20
2019-05-28T07:46:14.395Z,5.70
2019-05-28T07:47:14.375Z,8.10
2019-05-28T07:48:14.354Z,6.30
2019-05-28T07:49:14.338Z,7.70
2019-05-28T07:50:14.313Z,5.80
2019-05-28T07:51:14.293Z,6.10
2019-05-28T07:52:14.271Z,7.30
2019-05-28T07:53:14.252Z,5.50
2019-05-28T07:54:14.232Z,5.60
2019-05-28T07:55:14.212Z,7.30
2019-05-28T07:56:14.188Z,6.30
2019-05-28T07:57:14.167Z,5.70
2019-05-28T07:58:14.146Z,6.10
2019-05-28T07:59:14.125Z,5.30
2019-05-28T08:00:14.104Z,6.10
2019-05-28T08:01:14.083Z,9.40
2019-05-28T08:02:14.062Z,9.90
2019-05-28T08:03:14.041Z,8.70
2019-05-28T08:04:14.022Z,5.90
2019-05-28T08:05:17.038Z,5.10
2019-05-28T08:06:13.978Z,6.20
2019-05-28T08:07:13.957Z,6.90
2019-05-28T08:08:13.942Z,5.80
2019-05-28T08:09:13.914Z,6.10
2019-05-28T08:10:13.894Z,5.10
2019-05-28T08:11:13.924Z,6.60
2019-05-28T08:12:14.171Z,5.30
2019-05-28T08:13:13.893Z,5.90
2019-05-28T08:14:13.809Z,4.80
2019-05-28T08:15:13.786Z,6.40
2019-05-28T08:16:18.662Z,4.30
2019-05-28T08:17:13.746Z,4.00
2019-05-28T08:18:13.722Z,6.30
2019-05-28T08:19:13.699Z,5.60
2019-05-28T08:20:13.678Z,6.60
2019-05-28T08:21:13.655Z,5.10
2019-05-28T08:22:13.949Z,5.70
2019-05-28T08:23:13.616Z,4.80
2019-05-28T08:24:13.590Z,4.30
2019-05-28T08:25:27.533Z,4.80
2019-05-28T08:26:13.545Z,4.00
2019-05-28T08:27:13.523Z,3.90
2019-05-28T08:28:20.042Z,5.70
2019-05-28T08:29:13.476Z,6.40
2019-05-28T08:30:13.458Z,4.40
2019-05-28T08:31:17.261Z,5.60
2019-05-28T08:32:13.411Z,8.60
2019-05-28T08:33:13.388Z,6.90
2019-05-28T08:34:13.370Z,7.90
2019-05-28T08:35:13.343Z,5.70
2019-05-28T08:36:13.321Z,5.90
2019-05-28T08:37:13.298Z,5.90
2019-05-28T08:38:13.276Z,5.70
2019-05-28T08:39:13.259Z,5.80
2019-05-28T08:40:13.232Z,7.70
2019-05-28T08:41:13.207Z,7.60
2019-05-28T08:42:13.185Z,5.20
2019-05-28T08:43:13.165Z,6.30
2019-05-28T08:44:13.140Z,6.20
2019-05-28T08:45:13.150Z,6.90
2019-05-28T08:46:13.096Z,6.90
2019-05-28T08:47:13.079Z,5.90
2019-05-28T08:48:13.051Z,6.80
2019-05-28T08:49:13.025Z,6.70
2019-05-28T08:50:13.003Z,6.30
2019-05-28T08:51:12.988Z,5.40
2019-05-28T08:52:12.957Z,7.50
2019-05-28T08:53:12.934Z,7.20
2019-05-28T08:54:12.913Z,6.70
2019-05-28T08:55:12.888Z,7.50
2019-05-28T08:56:12.866Z,7.50
2019-05-28T08:57:12.845Z,6.10
2019-05-28T08:58:13.571Z,7.70
2019-05-28T08:59:12.800Z,8.50
2019-05-28T09:00:12.902Z,8.40
2019-05-28T09:01:12.921Z,9.50
2019-05-28T09:02:27.089Z,6.80
2019-05-28T09:03:12.797Z,7.00
2019-05-28T09:04:12.684Z,8.20
2019-05-28T09:05:25.967Z,7.20
2019-05-28T09:06:12.636Z,6.90
2019-05-28T09:07:12.614Z,9.20
2019-05-28T09:08:12.594Z,7.80
2019-05-28T09:09:12.568Z,6.30
2019-05-28T09:10:12.544Z,9.00
2019-05-28T09:11:12.989Z,6.40
2019-05-28T09:12:12.500Z,8.30
2019-05-28T09:13:12.475Z,6.90
2019-05-28T09:14:12.476Z,6.90
2019-05-28T09:15:12.446Z,8.70
2019-05-28T09:16:12.406Z,7.50
2019-05-28T09:17:12.384Z,9.00
2019-05-28T09:18:12.383Z,7.00
2019-05-28T09:19:12.339Z,7.00
2019-05-28T09:20:12.318Z,8.50
2019-05-28T09:21:12.299Z,7.10
2019-05-28T09:22:24.987Z,8.30
2019-05-28T09:23:12.247Z,8.40
2019-05-28T09:24:12.237Z,6.70
2019-05-28T09:25:15.203Z,7.20
2019-05-28T09:26:12.184Z,6.60
2019-05-28T09:27:12.155Z,8.90
2019-05-28T09:28:28.579Z,10.50
2019-05-28T09:29:12.108Z,6.20
2019-05-28T09:30:12.085Z,9.90
2019-05-28T09:31:12.063Z,8.80
2019-05-28T09:32:12.040Z,6.00
2019-05-28T09:33:12.159Z,7.30
2019-05-28T09:34:11.993Z,7.10
2019-05-28T09:35:11.973Z,7.20
2019-05-28T09:36:11.952Z,9.20
2019-05-28T09:37:11.923Z,10.50
2019-05-28T09:38:11.901Z,6.60
2019-05-28T09:39:11.877Z,12.20
2019-05-28T09:40:11.858Z,8.40
2019-05-28T09:41:11.836Z,7.50
2019-05-28T09:42:12.558Z,7.50
2019-05-28T09:43:11.788Z,8.00
2019-05-28T09:44:11.764Z,5.60
2019-05-28T09:45:22.376Z,6.80
2019-05-28T09:46:11.715Z,7.60
2019-05-28T09:47:11.692Z,5.40
2019-05-28T09:48:12.091Z,6.60
2019-05-28T09:49:11.645Z,7.00
2019-05-28T09:50:29.424Z,7.50
2019-05-28T09:51:11.599Z,7.20
2019-05-28T09:52:11.576Z,6.10
2019-05-28T09:53:11.552Z,8.80
2019-05-28T09:54:11.531Z,6.30
2019-05-28T09:55:11.507Z,8.50
2019-05-28T09:56:11.491Z,7.40
2019-05-28T09:57:11.461Z,6.30
2019-05-28T09:58:11.437Z,5.90
2019-05-28T09:59:11.414Z,7.20
2019-05-28T10:00:14.817Z,7.40
2019-05-28T10:01:11.366Z,8.70
2019-05-28T10:02:11.345Z,6.20
2019-05-28T10:03:11.323Z,6.60
2019-05-28T10:04:13.553Z,8.70
2019-05-28T10:05:11.288Z,6.30
2019-05-28T10:06:17.070Z,7.90
2019-05-28T10:07:11.243Z,7.90
2019-05-28T10:08:11.206Z,8.80
2019-05-28T10:09:11.281Z,7.20
2019-05-28T10:10:11.163Z,6.70
2019-05-28T10:11:11.136Z,6.90
2019-05-28T10:12:11.113Z,7.40
2019-05-28T10:13:11.100Z,7.00
2019-05-28T10:14:11.066Z,6.10
2019-05-28T10:15:11.044Z,5.50
2019-05-28T10:16:11.081Z,5.50
2019-05-28T10:17:10.998Z,4.20
2019-05-28T10:18:10.977Z,5.20
2019-05-28T10:19:10.956Z,7.60
2019-05-28T10:20:10.930Z,6.00
2019-05-28T10:21:18.128Z,7.20
2019-05-28T10:22:10.883Z,6.90
2019-05-28T10:23:10.867Z,5.20
2019-05-28T10:24:10.840Z,5.00
2019-05-28T10:25:10.813Z,7.30
2019-05-28T10:26:10.792Z,9.20
2019-05-28T10:27:10.770Z,8.00
2019-05-28T10:28:10.746Z,9.40
2019-05-28T10:29:10.728Z,6.50
2019-05-28T10:30:10.699Z,6.60
2019-05-28T10:31:10.675Z,6.10
2019-05-28T10:32:10.654Z,8.10
2019-05-28T10:33:10.631Z,6.60
2019-05-28T10:34:10.610Z,6.40
2019-05-28T10:35:10.608Z,7.20
2019-05-28T10:36:10.563Z,9.00
2019-05-28T10:37:10.542Z,5.80
2019-05-28T10:38:15.231Z,5.90
2019-05-28T10:39:10.497Z,6.80
2019-05-28T10:40:10.488Z,5.20
2019-05-28T10:41:10.451Z,3.80
2019-05-28T10:42:10.429Z,4.70
2019-05-28T10:43:10.409Z,4.50
2019-05-28T10:44:10.386Z,6.10
2019-05-28T10:45:10.385Z,4.90
2019-05-28T10:46:10.465Z,5.60
2019-05-28T10:47:10.319Z,4.20
2019-05-28T10:48:10.297Z,5.10
2019-05-28T10:49:10.276Z,4.70
2019-05-28T10:50:10.253Z,6.40
2019-05-28T10:51:10.232Z,5.30
2019-05-28T10:52:10.210Z,4.20
2019-05-28T10:53:10.187Z,5.80
2019-05-28T10:54:10.165Z,5.20
2019-05-28T10:55:10.144Z,5.30
2019-05-28T10:56:10.248Z,4.50
2019-05-28T10:57:10.100Z,5.20
2019-05-28T10:58:10.085Z,4.70
2019-05-28T10:59:10.057Z,5.50
2019-05-28T11:00:10.035Z,5.50
2019-05-28T11:01:10.013Z,5.30
2019-05-28T11:02:09.992Z,3.60
2019-05-28T11:03:09.975Z,5.00
2019-05-28T11:04:11.452Z,4.30
2019-05-28T11:05:09.929Z,4.30
2019-05-28T11:06:09.906Z,3.80
2019-05-28T11:07:09.884Z,5.10
2019-05-28T11:08:09.863Z,5.60
2019-05-28T11:09:09.846Z,5.50
2019-05-28T11:10:23.607Z,5.30
2019-05-28T11:11:09.805Z,8.60
2019-05-28T11:12:09.778Z,3.60
2019-05-28T11:13:09.756Z,4.70
2019-05-28T11:14:09.734Z,5.30
2019-05-28T11:15:09.716Z,9.20
2019-05-28T11:16:11.194Z,5.70
2019-05-28T11:17:09.680Z,3.90
2019-05-28T11:18:09.653Z,4.50
2019-05-28T11:19:09.629Z,4.70
2019-05-28T11:20:09.608Z,3.10
2019-05-28T11:21:10.236Z,3.20
2019-05-28T11:22:09.566Z,3.70
2019-05-28T11:23:09.557Z,2.90
2019-05-28T11:24:09.527Z,4.30
2019-05-28T11:25:09.504Z,4.00
2019-05-28T11:26:09.483Z,4.20
2019-05-28T11:27:09.469Z,4.40
2019-05-28T11:28:09.447Z,2.80
2019-05-28T11:29:09.421Z,7.00
2019-05-28T11:30:09.409Z,5.00
2019-05-28T11:31:09.382Z,7.80
2019-05-28T11:32:09.363Z,4.00
2019-05-28T11:33:11.594Z,3.10
2019-05-28T11:34:09.320Z,3.30
2019-05-28T11:35:09.327Z,3.10
2019-05-28T11:36:09.282Z,5.30
2019-05-28T11:37:10.179Z,5.10
2019-05-28T11:38:09.242Z,3.40
2019-05-28T11:39:10.724Z,5.30
2019-05-28T11:40:09.203Z,4.40
2019-05-28T11:41:09.199Z,3.30
2019-05-28T11:42:09.164Z,4.30
2019-05-28T11:43:09.143Z,4.90
2019-05-28T11:44:09.125Z,3.80
2019-05-28T11:45:10.925Z,4.60
2019-05-28T11:46:09.085Z,5.00
2019-05-28T11:47:09.066Z,4.80
2019-05-28T11:48:09.068Z,4.40
2019-05-28T11:49:09.027Z,4.70
2019-05-28T11:50:09.012Z,4.20
2019-05-28T11:51:11.248Z,4.70
2019-05-28T11:52:08.970Z,4.50
2019-05-28T11:53:08.951Z,3.40
2019-05-28T11:54:08.932Z,4.20
2019-05-28T11:55:08.913Z,4.00
2019-05-28T11:56:08.895Z,3.90
2019-05-28T11:57:08.876Z,4.10
2019-05-28T11:58:08.859Z,4.80
2019-05-28T11:59:08.842Z,4.80
2019-05-28T12:00:08.822Z,3.40
2019-05-28T12:01:08.802Z,3.20
2019-05-28T12:02:08.782Z,5.60
2019-05-28T12:03:08.762Z,4.70
2019-05-28T12:04:08.744Z,3.70
2019-05-28T12:05:08.730Z,3.40
2019-05-28T12:06:08.707Z,3.60
2019-05-28T12:07:22.891Z,3.40
2019-05-28T12:08:08.669Z,3.50
2019-05-28T12:09:08.649Z,4.40
2019-05-28T12:10:08.631Z,6.40
2019-05-28T12:11:08.615Z,5.10
2019-05-28T12:12:08.621Z,3.80
2019-05-28T12:13:10.878Z,3.90
2019-05-28T12:14:08.556Z,5.70
2019-05-28T12:15:08.537Z,5.80
2019-05-28T12:16:08.553Z,3.80
2019-05-28T12:17:08.516Z,3.50
2019-05-28T12:18:08.512Z,3.90
2019-05-28T12:19:08.467Z,4.40
2019-05-28T12:20:08.446Z,4.00
2019-05-28T12:21:08.467Z,4.90
2019-05-28T12:22:08.452Z,3.40
2019-05-28T12:23:11.518Z,3.40
2019-05-28T12:24:10.630Z,5.20
2019-05-28T12:25:08.355Z,4.90
2019-05-28T12:26:08.335Z,3.30
2019-05-28T12:27:08.316Z,3.70
2019-05-28T12:28:08.300Z,6.50
2019-05-28T12:29:08.280Z,4.20
2019-05-28T12:30:08.265Z,5.50
2019-05-28T12:31:08.246Z,2.90
2019-05-28T12:32:09.186Z,5.20
2019-05-28T12:33:08.207Z,3.70
2019-05-28T12:34:08.190Z,4.50
2019-05-28T12:35:25.918Z,5.90
2019-05-28T12:36:08.324Z,3.50
2019-05-28T12:37:08.134Z,3.90
2019-05-28T12:38:08.115Z,3.20
2019-05-28T12:39:08.126Z,4.70
2019-05-28T12:40:08.085Z,4.40
2019-05-28T12:41:08.058Z,3.00
2019-05-28T12:42:08.040Z,3.50
2019-05-28T12:43:08.022Z,3.20
2019-05-28T12:44:08.006Z,3.90
2019-05-28T12:46:08.064Z,8.20
2019-05-28T12:47:07.986Z,3.10
2019-05-28T12:48:12.693Z,3.30
2019-05-28T12:48:25.957Z,3.10
2019-05-28T12:49:07.906Z,3.20
2019-05-28T12:50:19.093Z,4.70
2019-05-28T12:51:07.871Z,5.30
2019-05-28T12:52:07.850Z,4.20
2019-05-28T12:53:07.832Z,4.70
2019-05-28T12:54:07.809Z,3.90
2019-05-28T12:55:07.790Z,4.90
2019-05-28T12:56:07.774Z,3.50
2019-05-28T12:57:07.749Z,4.10
2019-05-28T12:58:07.749Z,4.30
2019-05-28T12:59:07.711Z,3.40
2019-05-28T13:00:07.700Z,4.10
2019-05-28T13:01:07.672Z,6.90
2019-05-28T13:02:07.655Z,7.10
2019-05-28T13:03:07.629Z,7.50
2019-05-28T13:04:07.634Z,10.40
2019-05-28T13:05:07.587Z,10.30
2019-05-28T13:06:07.568Z,7.90
2019-05-28T13:07:07.547Z,5.00
2019-05-28T13:08:10.150Z,2.70
2019-05-28T13:09:07.505Z,2.60
2019-05-28T13:10:07.486Z,4.50
2019-05-28T13:11:07.464Z,3.80
2019-05-28T13:12:07.444Z,2.50
2019-05-28T13:13:07.422Z,2.70
2019-05-28T13:14:07.403Z,4.40
2019-05-28T13:15:07.383Z,3.70
2019-05-28T13:16:07.362Z,3.20
2019-05-28T13:17:07.356Z,4.00
2019-05-28T13:18:07.319Z,2.20